Time;durP1;ratioP1;P1;durP2;ratioP2;P2;SDS_P1;SDS_P2;PMS_P1;PMS_P2;Temp;Humidity;BMP_temperature;BMP_pressure;BME280_temperature;BME280_humidity;BME280_pressure;Samples;Min_cycle;Max_cycle;Signal;HPM_P1;HPM_P2
2021/12/07 00:02:03;;;;;;;;;;;3.90;99.90;;;;;;5035525;28;19913;-85
2021/12/07 00:04:29;;;;;;;;;;;3.90;99.90;;;;;;5018063;28;19916;-85
2021/12/07 00:06:55;;;;;;;;;;;3.90;99.90;;;;;;5018033;28;19909;-84
2021/12/07 00:09:22;;;;;;;;;;;3.90;99.90;;;;;;5017591;28;20007;-84
2021/12/07 00:11:48;;;;;;;;;;;3.90;99.90;;;;;;5034816;28;20000;-85
2021/12/07 00:14:22;;;;;;;;;;;4.00;99.90;;;;;;5018122;28;19916;-83
2021/12/07 00:16:47;;;;;;;;;;;3.90;99.90;;;;;;5018283;28;19909;-85
2021/12/07 00:19:13;;;;;;;;;;;3.90;99.90;;;;;;5016911;28;20289;-85
2021/12/07 00:21:41;;;;;;;;;;;3.90;99.90;;;;;;5017718;28;19995;-84
2021/12/07 00:24:07;;;;;;;;;;;3.90;99.90;;;;;;5017584;28;19909;-84
2021/12/07 00:26:32;;;;;;;;;;;3.90;99.90;;;;;;5017625;28;20357;-84
2021/12/07 00:29:01;;;;;;;;;;;3.80;99.90;;;;;;5016956;28;19916;-85
2021/12/07 00:31:31;;;;;;;;;;;3.90;99.90;;;;;;5017384;28;20286;-84
2021/12/07 00:34:14;;;;;;;;;;;3.90;99.90;;;;;;5017767;28;19945;-84
2021/12/07 00:36:45;;;;;;;;;;;3.80;99.90;;;;;;5034021;28;19909;-84
2021/12/07 00:39:11;;;;;;;;;;;3.90;99.90;;;;;;5017011;28;20370;-84
2021/12/07 00:41:37;;;;;;;;;;;3.90;99.90;;;;;;5017510;28;19955;-84
2021/12/07 00:44:03;;;;;;;;;;;3.90;99.90;;;;;;5033964;28;19905;-83
2021/12/07 00:46:29;;;;;;;;;;;3.90;99.90;;;;;;5017224;28;19913;-84
2021/12/07 00:48:55;;;;;;;;;;;3.90;99.90;;;;;;5033812;28;20379;-84
2021/12/07 00:51:21;;;;;;;;;;;3.90;99.90;;;;;;5017437;28;19905;-84
2021/12/07 00:53:47;;;;;;;;;;;3.80;99.90;;;;;;5039148;28;20286;-85
2021/12/07 00:56:13;;;;;;;;;;;3.90;99.90;;;;;;5040411;28;20323;-84
2021/12/07 00:58:39;;;;;;;;;;;3.90;99.90;;;;;;5039768;28;19938;-86
2021/12/07 01:01:06;;;;;;;;;;;3.90;99.90;;;;;;5040208;28;19996;-85
2021/12/07 01:03:32;;;;;;;;;;;3.90;99.90;;;;;;5041104;28;19913;-86
2021/12/07 01:24:57;;;;;;;;;;;4.00;99.90;;;;;;5041145;28;19913;-85
2021/12/07 01:27:25;;;;;;;;;;;4.00;99.90;;;;;;5024518;28;20427;-86
2021/12/07 01:30:04;;;;;;;;;;;4.00;99.90;;;;;;5040795;28;19912;-85
2021/12/07 01:35:41;;;;;;;;;;;3.90;99.90;;;;;;5041341;28;19932;-86
2021/12/07 01:40:51;;;;;;;;;;;3.80;99.90;;;;;;5041521;28;19996;-86
2021/12/07 01:59:34;;;;;;;;;;;3.70;99.90;;;;;;5033227;28;19936;-83
2021/12/07 02:02:07;;;;;;;;;;;3.60;99.90;;;;;;5033981;28;20011;-84
2021/12/07 02:04:33;;;;;;;;;;;3.60;99.90;;;;;;5017334;28;19962;-84
2021/12/07 02:06:59;;;;;;;;;;;3.60;99.90;;;;;;5033757;28;19913;-85
2021/12/07 02:09:26;;;;;;;;;;;3.60;99.90;;;;;;5032581;28;19905;-84
2021/12/07 02:11:59;;;;;;;;;;;3.60;99.90;;;;;;5033832;28;20301;-84
2021/12/07 02:14:25;;;;;;;;;;;3.60;99.90;;;;;;5017179;28;20305;-84
2021/12/07 02:16:52;;;;;;;;;;;3.60;99.90;;;;;;5016772;28;19913;-85
2021/12/07 02:19:19;;;;;;;;;;;3.60;99.90;;;;;;5016111;28;19909;-84
2021/12/07 02:21:45;;;;;;;;;;;3.60;99.90;;;;;;5033200;28;19960;-84
2021/12/07 02:24:18;;;;;;;;;;;3.60;99.90;;;;;;5033235;28;19913;-85
2021/12/07 02:26:44;;;;;;;;;;;3.60;99.90;;;;;;5016581;28;20254;-85
2021/12/07 02:29:10;;;;;;;;;;;3.70;99.90;;;;;;5032432;28;19913;-84
2021/12/07 02:31:37;;;;;;;;;;;3.70;99.90;;;;;;5032985;28;20266;-84
2021/12/07 02:34:05;;;;;;;;;;;3.70;99.90;;;;;;5032747;28;19913;-86
2021/12/07 02:36:31;;;;;;;;;;;3.70;99.90;;;;;;5015653;28;19916;-86
2021/12/07 02:38:57;;;;;;;;;;;3.70;99.90;;;;;;5015032;28;19975;-85
2021/12/07 02:41:23;;;;;;;;;;;3.80;99.90;;;;;;5014895;28;19913;-85
2021/12/07 02:43:49;;;;;;;;;;;3.80;99.90;;;;;;5015785;28;20423;-84
2021/12/07 02:46:16;;;;;;;;;;;3.90;99.90;;;;;;5016564;28;19909;-84
2021/12/07 02:48:42;;;;;;;;;;;3.90;99.90;;;;;;5015608;28;19909;-84
2021/12/07 02:51:08;;;;;;;;;;;3.90;99.90;;;;;;5032769;28;19944;-85
2021/12/07 02:53:34;;;;;;;;;;;3.90;99.90;;;;;;5033849;28;19952;-84
2021/12/07 02:56:02;;;;;;;;;;;4.00;99.90;;;;;;5016247;28;19909;-85
2021/12/07 02:58:32;;;;;;;;;;;3.90;99.90;;;;;;5016243;28;20000;-84
2021/12/07 03:01:24;;;;;;;;;;;4.00;99.90;;;;;;5032495;28;19909;-84
2021/12/07 03:04:14;;;;;;;;;;;4.10;99.90;;;;;;5032551;28;19928;-84
2021/12/07 03:26:22;;;;;;;;;;;4.40;99.90;;;;;;5032818;28;20362;-84
2021/12/07 03:28:50;;;;;;;;;;;4.40;99.90;;;;;;5015656;28;20635;-84
2021/12/07 03:31:20;;;;;;;;;;;4.50;99.90;;;;;;5032320;28;19913;-85
2021/12/07 03:33:48;;;;;;;;;;;4.50;99.90;;;;;;5015848;28;19917;-84
2021/12/07 03:36:14;;;;;;;;;;;4.50;99.90;;;;;;5032528;28;19913;-84
2021/12/07 03:38:41;;;;;;;;;;;4.50;99.90;;;;;;5015817;28;19912;-85
2021/12/07 03:41:07;;;;;;;;;;;4.50;99.90;;;;;;5016219;28;19952;-85
2021/12/07 03:43:34;;;;;;;;;;;4.50;99.90;;;;;;5032530;28;19908;-85
2021/12/07 03:46:00;;;;;;;;;;;4.60;99.90;;;;;;5016792;28;20399;-84
2021/12/07 03:48:27;;;;;;;;;;;4.60;99.90;;;;;;5016955;28;19928;-86
2021/12/07 03:50:52;;;;;;;;;;;4.60;99.90;;;;;;5017685;28;19909;-84
2021/12/07 03:53:18;;;;;;;;;;;4.60;99.90;;;;;;5018511;28;19909;-84
2021/12/07 03:55:44;;;;;;;;;;;4.60;99.90;;;;;;5037242;28;19932;-85
2021/12/07 03:58:10;;;;;;;;;;;4.60;99.90;;;;;;5020104;28;20345;-85
2021/12/07 04:00:37;;;;;;;;;;;4.60;99.90;;;;;;5039201;28;19951;-85
2021/12/07 04:03:07;;;;;;;;;;;4.60;99.90;;;;;;5022286;28;19909;-84
2021/12/07 04:05:33;;;;;;;;;;;4.60;99.90;;;;;;5022352;28;19916;-85
2021/12/07 04:07:59;;;;;;;;;;;4.60;99.90;;;;;;5021209;28;19917;-85
2021/12/07 04:10:25;;;;;;;;;;;4.60;99.90;;;;;;5022126;28;20282;-84
2021/12/07 04:12:52;;;;;;;;;;;4.60;99.90;;;;;;5039331;28;19916;-85
2021/12/07 04:15:18;;;;;;;;;;;4.60;99.90;;;;;;5037856;28;20362;-84
2021/12/07 04:17:44;;;;;;;;;;;4.60;99.90;;;;;;5038281;28;19909;-84
2021/12/07 04:20:14;;;;;;;;;;;4.60;99.90;;;;;;5019681;28;19956;-84
2021/12/07 04:22:41;;;;;;;;;;;4.60;99.90;;;;;;5036184;28;19909;-85
2021/12/07 04:25:09;;;;;;;;;;;4.50;99.90;;;;;;5036322;28;19905;-84
2021/12/07 04:27:38;;;;;;;;;;;4.60;99.90;;;;;;5019200;28;19964;-85
2021/12/07 04:30:05;;;;;;;;;;;4.60;99.90;;;;;;5037953;28;19909;-85
2021/12/07 04:32:30;;;;;;;;;;;4.50;99.90;;;;;;5036911;28;20365;-84
2021/12/07 04:34:56;;;;;;;;;;;4.60;99.90;;;;;;5036548;28;19909;-85
2021/12/07 04:37:22;;;;;;;;;;;4.50;99.90;;;;;;5020710;28;19909;-86
2021/12/07 04:39:47;;;;;;;;;;;4.50;99.90;;;;;;5036660;28;19949;-86
2021/12/07 04:42:13;;;;;;;;;;;4.50;99.90;;;;;;5037024;28;19905;-84
2021/12/07 04:44:46;;;;;;;;;;;4.50;99.90;;;;;;5020939;28;19912;-84
2021/12/07 04:47:20;;;;;;;;;;;4.40;99.90;;;;;;5020041;28;19913;-85
2021/12/07 05:00:14;;;;;;;;;;;4.40;99.90;;;;;;5036237;28;19909;-84
2021/12/07 05:02:42;;;;;;;;;;;4.40;99.90;;;;;;5036572;28;20108;-84
2021/12/07 05:05:10;;;;;;;;;;;4.50;99.90;;;;;;5037287;28;19916;-85
2021/12/07 05:07:41;;;;;;;;;;;4.50;99.90;;;;;;5018695;28;19909;-85
2021/12/07 05:10:18;;;;;;;;;;;4.50;99.90;;;;;;5036369;28;19955;-85
2021/12/07 05:15:55;;;;;;;;;;;4.50;99.90;;;;;;5036745;28;20393;-86
2021/12/07 05:34:53;;;;;;;;;;;4.50;99.90;;;;;;5036699;28;19920;-85
2021/12/07 05:40:04;;;;;;;;;;;4.50;99.90;;;;;;5035929;28;19915;-85
2021/12/07 05:42:30;;;;;;;;;;;4.50;99.90;;;;;;5038110;28;19912;-85
2021/12/07 05:44:56;;;;;;;;;;;4.40;99.90;;;;;;5037009;28;19931;-85
2021/12/07 05:47:22;;;;;;;;;;;4.50;99.90;;;;;;5019873;28;20392;-85
2021/12/07 05:49:48;;;;;;;;;;;4.50;99.90;;;;;;5019225;28;19912;-86
2021/12/07 05:52:13;;;;;;;;;;;4.60;99.90;;;;;;5019214;28;19909;-86
2021/12/07 05:54:40;;;;;;;;;;;4.50;99.90;;;;;;5035478;28;19920;-85
2021/12/07 05:57:05;;;;;;;;;;;4.50;99.90;;;;;;5018251;28;19909;-86
2021/12/07 05:59:34;;;;;;;;;;;4.50;99.90;;;;;;5034673;28;20317;-85
2021/12/07 06:02:00;;;;;;;;;;;4.50;99.90;;;;;;5018869;28;19923;-86
2021/12/07 06:04:28;;;;;;;;;;;4.50;99.90;;;;;;5018953;28;19909;-85
2021/12/07 06:06:54;;;;;;;;;;;4.60;99.90;;;;;;5018669;28;19920;-85
2021/12/07 06:09:20;;;;;;;;;;;4.50;99.90;;;;;;5037050;28;19924;-86
2021/12/07 06:11:47;;;;;;;;;;;4.50;99.90;;;;;;5035976;28;19909;-85
2021/12/07 06:14:18;;;;;;;;;;;4.60;99.90;;;;;;5035605;28;20372;-85
2021/12/07 06:16:44;;;;;;;;;;;4.50;99.90;;;;;;5018959;28;19909;-85
2021/12/07 06:19:09;;;;;;;;;;;4.60;99.90;;;;;;5035103;28;19915;-84
2021/12/07 06:21:35;;;;;;;;;;;4.50;99.90;;;;;;5020454;28;19916;-84
2021/12/07 06:24:00;;;;;;;;;;;4.50;99.90;;;;;;5020012;28;19909;-86
2021/12/07 06:26:26;;;;;;;;;;;4.50;99.90;;;;;;5036814;28;20478;-84
2021/12/07 06:28:51;;;;;;;;;;;4.50;99.90;;;;;;5019633;28;19932;-86
2021/12/07 06:31:17;;;;;;;;;;;4.50;99.90;;;;;;5020004;28;19909;-85
2021/12/07 06:33:43;;;;;;;;;;;4.40;99.90;;;;;;5036130;28;19913;-86
2021/12/07 06:36:09;;;;;;;;;;;4.50;99.90;;;;;;5035760;28;19916;-87
2021/12/07 06:38:35;;;;;;;;;;;4.50;99.90;;;;;;5034806;28;19909;-85
2021/12/07 06:41:01;;;;;;;;;;;4.50;99.90;;;;;;5019175;28;19909;-84
2021/12/07 06:43:27;;;;;;;;;;;4.50;99.90;;;;;;5035753;28;20286;-85
2021/12/07 06:45:53;;;;;;;;;;;4.50;99.90;;;;;;5035858;28;19915;-86
2021/12/07 06:48:19;;;;;;;;;;;4.50;99.90;;;;;;5019485;28;19913;-85
2021/12/07 06:50:46;;;;;;;;;;;4.50;99.90;;;;;;5036162;28;19909;-84
2021/12/07 06:53:12;;;;;;;;;;;4.50;99.90;;;;;;5037036;28;19905;-85
2021/12/07 06:55:37;;;;;;;;;;;4.50;99.90;;;;;;5038375;28;20275;-85
2021/12/07 06:58:04;;;;;;;;;;;4.50;99.90;;;;;;5037370;28;20376;-85
2021/12/07 07:00:30;;;;;;;;;;;4.50;99.90;;;;;;5020912;28;20373;-85
2021/12/07 07:02:56;;;;;;;;;;;4.50;99.90;;;;;;5021330;28;19905;-84
2021/12/07 07:05:22;;;;;;;;;;;4.50;99.90;;;;;;5020627;28;19996;-86
2021/12/07 07:07:47;;;;;;;;;;;4.50;99.90;;;;;;5035111;28;19936;-85
2021/12/07 07:10:15;;;;;;;;;;;4.50;99.90;;;;;;5020538;28;20278;-85
2021/12/07 07:12:40;;;;;;;;;;;4.50;99.90;;;;;;5036302;28;19920;-85
2021/12/07 07:15:07;;;;;;;;;;;4.50;99.90;;;;;;5036683;28;19909;-85
2021/12/07 07:17:32;;;;;;;;;;;4.50;99.90;;;;;;5019628;28;19905;-86
2021/12/07 07:19:58;;;;;;;;;;;4.50;99.90;;;;;;5035597;28;19947;-86
2021/12/07 07:22:24;;;;;;;;;;;4.50;99.90;;;;;;5038301;28;20028;-86
2021/12/07 07:24:50;;;;;;;;;;;4.40;99.90;;;;;;5037015;28;20361;-85
2021/12/07 07:27:15;;;;;;;;;;;4.40;99.90;;;;;;5037392;28;19916;-85
2021/12/07 07:29:42;;;;;;;;;;;4.40;99.90;;;;;;5039306;28;20151;-85
2021/12/07 07:32:07;;;;;;;;;;;4.40;99.90;;;;;;5023797;28;19909;-86
2021/12/07 07:34:33;;;;;;;;;;;4.40;99.90;;;;;;5039905;28;19913;-86
2021/12/07 07:37:00;;;;;;;;;;;4.50;99.90;;;;;;5039939;28;19916;-84
2021/12/07 07:39:25;;;;;;;;;;;4.40;99.90;;;;;;5023648;28;19913;-86
2021/12/07 07:41:53;;;;;;;;;;;4.40;99.90;;;;;;5040479;28;19908;-85
2021/12/07 07:44:19;;;;;;;;;;;4.40;99.90;;;;;;5023907;28;19915;-84
2021/12/07 07:46:47;;;;;;;;;;;4.50;99.90;;;;;;5039789;28;19944;-86
2021/12/07 07:49:13;;;;;;;;;;;4.40;99.90;;;;;;5023021;28;20277;-85
2021/12/07 07:51:39;;;;;;;;;;;4.40;99.90;;;;;;5023710;28;19909;-86
2021/12/07 07:54:05;;;;;;;;;;;4.40;99.90;;;;;;5040432;28;19916;-85
2021/12/07 07:56:31;;;;;;;;;;;4.40;99.90;;;;;;5023681;28;19913;-86
2021/12/07 07:58:58;;;;;;;;;;;4.40;99.90;;;;;;5040262;28;19920;-85
2021/12/07 08:01:24;;;;;;;;;;;4.40;99.90;;;;;;5040856;28;19916;-86
2021/12/07 08:03:51;;;;;;;;;;;4.40;99.90;;;;;;5041137;28;19924;-85
2021/12/07 08:06:17;;;;;;;;;;;4.40;99.90;;;;;;5024320;28;19909;-86
2021/12/07 08:08:44;;;;;;;;;;;4.40;99.90;;;;;;5040373;28;19972;-86
2021/12/07 08:11:13;;;;;;;;;;;4.40;99.90;;;;;;5025032;28;19909;-86
2021/12/07 08:13:39;;;;;;;;;;;4.40;99.90;;;;;;5024256;28;19908;-85
2021/12/07 08:16:05;;;;;;;;;;;4.40;99.90;;;;;;5041045;28;20366;-86
2021/12/07 08:18:31;;;;;;;;;;;4.40;99.90;;;;;;5040835;28;20005;-85
2021/12/07 08:20:57;;;;;;;;;;;4.40;99.90;;;;;;5040701;28;19939;-86
2021/12/07 08:23:23;;;;;;;;;;;4.40;99.90;;;;;;5042134;28;19905;-86
2021/12/07 08:25:50;;;;;;;;;;;4.40;99.90;;;;;;5020437;28;20358;-85
2021/12/07 08:28:19;;;;;;;;;;;4.40;99.90;;;;;;5036696;28;19909;-86
2021/12/07 08:30:45;;;;;;;;;;;4.40;99.90;;;;;;5020366;28;19959;-85
2021/12/07 08:33:11;;;;;;;;;;;4.40;99.90;;;;;;5024008;28;19920;-86
2021/12/07 08:35:36;;;;;;;;;;;4.40;99.90;;;;;;5038347;28;20286;-86
2021/12/07 08:38:03;;;;;;;;;;;4.40;99.90;;;;;;5034740;28;19909;-85
2021/12/07 08:40:30;;;;;;;;;;;4.50;99.90;;;;;;5034009;28;19909;-86
2021/12/07 08:42:56;;;;;;;;;;;4.40;99.90;;;;;;5037383;28;20297;-85
2021/12/07 08:45:22;;;;;;;;;;;4.50;99.90;;;;;;5036914;28;20004;-85
2021/12/07 08:47:48;;;;;;;;;;;4.50;99.90;;;;;;5036959;28;19935;-85
2021/12/07 08:50:17;;;;;;;;;;;4.50;99.90;;;;;;5035200;28;19913;-85
2021/12/07 08:52:45;;;;;;;;;;;4.50;99.90;;;;;;5019285;28;20028;-85
2021/12/07 09:00:25;;;;;;;;;;;4.50;99.90;;;;;;5035109;28;20330;-85
2021/12/07 09:02:51;;;;;;;;;;;4.50;99.90;;;;;;5034949;28;19932;-85
2021/12/07 09:05:17;;;;;;;;;;;4.50;99.90;;;;;;5019497;28;20004;-84
2021/12/07 09:07:44;;;;;;;;;;;4.60;99.90;;;;;;5036803;28;19913;-85
2021/12/07 09:10:10;;;;;;;;;;;4.60;99.90;;;;;;5018765;28;20337;-84
2021/12/07 09:12:36;;;;;;;;;;;4.60;99.90;;;;;;5019117;28;19909;-86
2021/12/07 09:15:02;;;;;;;;;;;4.60;99.90;;;;;;5035164;28;19931;-86
2021/12/07 09:17:27;;;;;;;;;;;4.60;99.90;;;;;;5035410;28;20373;-85
2021/12/07 09:19:54;;;;;;;;;;;4.60;99.90;;;;;;5018946;28;19916;-85
2021/12/07 09:22:20;;;;;;;;;;;4.70;99.90;;;;;;5018995;28;19909;-86
2021/12/07 09:24:46;;;;;;;;;;;4.70;99.90;;;;;;5019118;28;19909;-84
2021/12/07 09:27:11;;;;;;;;;;;4.70;99.90;;;;;;5035063;28;19913;-85
2021/12/07 09:29:37;;;;;;;;;;;4.80;99.90;;;;;;5036251;28;20413;-84
2021/12/07 09:32:04;;;;;;;;;;;4.80;99.90;;;;;;5035171;28;19915;-85
2021/12/07 09:34:32;;;;;;;;;;;4.80;99.90;;;;;;5018075;28;19939;-84
2021/12/07 09:36:58;;;;;;;;;;;4.80;99.90;;;;;;5018486;28;19909;-86
2021/12/07 09:39:24;;;;;;;;;;;4.80;99.90;;;;;;5017762;28;19909;-84
2021/12/07 09:41:53;;;;;;;;;;;4.80;99.90;;;;;;5035210;28;19909;-86
2021/12/07 09:44:18;;;;;;;;;;;4.80;99.90;;;;;;5035292;28;19909;-86
2021/12/07 09:46:44;;;;;;;;;;;4.90;99.90;;;;;;5035477;28;20356;-84
2021/12/07 09:49:10;;;;;;;;;;;4.90;99.90;;;;;;5018318;28;19913;-84
2021/12/07 09:51:36;;;;;;;;;;;4.90;99.90;;;;;;5036487;28;19913;-84
2021/12/07 09:54:03;;;;;;;;;;;5.00;99.90;;;;;;5034952;28;19909;-86
2021/12/07 09:56:29;;;;;;;;;;;5.00;99.90;;;;;;5018479;28;20336;-86
2021/12/07 09:58:56;;;;;;;;;;;5.00;99.90;;;;;;5018616;28;20259;-85
2021/12/07 10:01:22;;;;;;;;;;;5.00;99.90;;;;;;5035318;28;19975;-85
2021/12/07 10:03:48;;;;;;;;;;;4.90;99.90;;;;;;5034618;28;19947;-85
2021/12/07 10:06:14;;;;;;;;;;;4.90;99.90;;;;;;5036577;28;19909;-85
2021/12/07 10:08:40;;;;;;;;;;;4.90;99.90;;;;;;5017912;28;19923;-86
2021/12/07 10:11:07;;;;;;;;;;;5.00;99.90;;;;;;5035234;28;19944;-87
2021/12/07 10:13:33;;;;;;;;;;;5.00;99.90;;;;;;5018797;28;19912;-85
2021/12/07 10:16:02;;;;;;;;;;;5.00;99.90;;;;;;5035059;28;19916;-85
2021/12/07 10:18:28;;;;;;;;;;;5.10;99.90;;;;;;5017458;28;19909;-85
2021/12/07 10:20:56;;;;;;;;;;;5.20;99.90;;;;;;5033444;28;20410;-86
2021/12/07 10:23:41;;;;;;;;;;;5.20;99.90;;;;;;5033154;28;19959;-85
2021/12/07 10:26:12;;;;;;;;;;;5.30;99.90;;;;;;5016383;28;19909;-84
2021/12/07 10:28:56;;;;;;;;;;;5.20;99.90;;;;;;5016256;28;19913;-86
2021/12/07 10:31:21;;;;;;;;;;;5.20;99.90;;;;;;5016883;28;19909;-86
2021/12/07 10:33:54;;;;;;;;;;;5.20;99.90;;;;;;5032987;28;19920;-84
2021/12/07 10:36:20;;;;;;;;;;;5.30;99.90;;;;;;5033678;28;20288;-86
2021/12/07 10:38:48;;;;;;;;;;;5.30;99.90;;;;;;5016814;28;19909;-85
2021/12/07 10:41:18;;;;;;;;;;;5.30;99.90;;;;;;5033224;28;20354;-85
2021/12/07 10:43:48;;;;;;;;;;;5.30;99.90;;;;;;5034510;28;20019;-84
2021/12/07 10:46:33;;;;;;;;;;;5.40;99.90;;;;;;5017052;28;19909;-84
2021/12/07 10:49:13;;;;;;;;;;;5.40;99.90;;;;;;5016072;28;19917;-85
2021/12/07 10:51:55;;;;;;;;;;;5.40;99.90;;;;;;5034986;28;19909;-85
2021/12/07 10:54:21;;;;;;;;;;;5.40;99.90;;;;;;5033375;28;19913;-84
2021/12/07 10:56:47;;;;;;;;;;;5.40;99.90;;;;;;5017386;28;19905;-86
2021/12/07 10:59:13;;;;;;;;;;;5.50;99.90;;;;;;5033547;28;20374;-84
2021/12/07 11:01:40;;;;;;;;;;;5.50;99.90;;;;;;5016847;28;19913;-86
2021/12/07 11:04:22;;;;;;;;;;;5.50;99.90;;;;;;5032249;28;19909;-84
2021/12/07 11:07:03;;;;;;;;;;;5.50;99.90;;;;;;5032595;28;20012;-84
2021/12/07 11:09:29;;;;;;;;;;;5.60;99.90;;;;;;5015063;28;19909;-85
2021/12/07 11:12:12;;;;;;;;;;;5.60;99.90;;;;;;5032655;28;20324;-84
2021/12/07 11:14:52;;;;;;;;;;;5.60;99.90;;;;;;5032724;28;19909;-85
2021/12/07 11:17:23;;;;;;;;;;;5.60;99.90;;;;;;5016033;28;20370;-84
2021/12/07 11:19:49;;;;;;;;;;;5.60;99.90;;;;;;5015667;28;19909;-85
2021/12/07 11:22:16;;;;;;;;;;;5.60;99.90;;;;;;5032779;28;19916;-84
2021/12/07 11:24:44;;;;;;;;;;;5.70;99.90;;;;;;5032989;28;19905;-85
2021/12/07 11:30:00;;;;;;;;;;;5.70;99.90;;;;;;5033105;28;19949;-85
2021/12/07 11:32:26;;;;;;;;;;;5.80;99.90;;;;;;5016199;28;20397;-84
2021/12/07 11:34:52;;;;;;;;;;;5.80;99.90;;;;;;5016372;28;19913;-84
2021/12/07 11:37:17;;;;;;;;;;;5.90;99.90;;;;;;5033009;28;19909;-86
2021/12/07 11:39:51;;;;;;;;;;;5.90;99.90;;;;;;5032198;28;19916;-85
2021/12/07 11:42:25;;;;;;;;;;;6.00;99.90;;;;;;5016232;28;19909;-84
2021/12/07 11:44:52;;;;;;;;;;;6.00;99.90;;;;;;5032279;28;20297;-86
2021/12/07 11:47:25;;;;;;;;;;;6.00;99.90;;;;;;5016071;28;19946;-85
2021/12/07 11:49:51;;;;;;;;;;;6.00;99.90;;;;;;5016568;28;19917;-85
2021/12/07 11:52:16;;;;;;;;;;;6.10;99.90;;;;;;5033523;28;19909;-86
2021/12/07 11:54:43;;;;;;;;;;;6.10;99.90;;;;;;5033703;28;20282;-85
2021/12/07 11:57:11;;;;;;;;;;;6.00;99.90;;;;;;5017330;28;20384;-85
2021/12/07 11:59:37;;;;;;;;;;;6.10;99.90;;;;;;5032929;28;19916;-85
2021/12/07 12:02:03;;;;;;;;;;;6.00;99.90;;;;;;5016673;28;19913;-85
2021/12/07 12:04:29;;;;;;;;;;;6.10;99.90;;;;;;5033826;28;19908;-85
2021/12/07 12:06:59;;;;;;;;;;;6.10;99.90;;;;;;5034421;28;19920;-85
2021/12/07 12:09:25;;;;;;;;;;;6.10;99.90;;;;;;5016542;28;19924;-85
2021/12/07 12:11:51;;;;;;;;;;;6.00;99.90;;;;;;5033858;28;19909;-86
2021/12/07 12:14:22;;;;;;;;;;;6.10;99.90;;;;;;5017033;28;20285;-85
2021/12/07 12:16:55;;;;;;;;;;;6.10;99.90;;;;;;5037008;28;20392;-86
2021/12/07 12:19:29;;;;;;;;;;;6.10;99.90;;;;;;5036495;28;19916;-86
2021/12/07 12:22:04;;;;;;;;;;;6.00;99.90;;;;;;5036409;28;19908;-86
2021/12/07 12:24:40;;;;;;;;;;;6.10;99.90;;;;;;5036000;28;19983;-86
2021/12/07 12:27:07;;;;;;;;;;;6.10;99.90;;;;;;5036214;28;19924;-86
2021/12/07 12:29:34;;;;;;;;;;;6.10;99.90;;;;;;5018628;28;19909;-85
2021/12/07 12:32:00;;;;;;;;;;;6.10;99.90;;;;;;5035823;28;19909;-85
2021/12/07 12:34:34;;;;;;;;;;;6.10;99.90;;;;;;5019216;28;20008;-85
2021/12/07 12:37:00;;;;;;;;;;;6.10;99.90;;;;;;5035239;28;20003;-84
2021/12/07 12:39:41;;;;;;;;;;;6.20;99.90;;;;;;5034590;28;19960;-85
2021/12/07 12:42:06;;;;;;;;;;;6.20;99.90;;;;;;5034535;28;19921;-86
2021/12/07 12:44:36;;;;;;;;;;;6.20;99.90;;;;;;5018774;28;19912;-86
2021/12/07 12:47:03;;;;;;;;;;;6.20;99.90;;;;;;5018077;28;20019;-85
2021/12/07 12:49:41;;;;;;;;;;;6.20;99.90;;;;;;5033829;28;20412;-85
2021/12/07 12:52:07;;;;;;;;;;;6.20;99.90;;;;;;5017677;28;19916;-86
2021/12/07 12:54:44;;;;;;;;;;;6.20;99.90;;;;;;5019966;28;20361;-84
2021/12/07 12:57:13;;;;;;;;;;;6.30;99.90;;;;;;5028097;28;19909;-86
2021/12/07 12:59:39;;;;;;;;;;;6.30;99.90;;;;;;5043697;28;19916;-85
2021/12/07 13:02:05;;;;;;;;;;;6.30;99.90;;;;;;5044528;28;19916;-85
2021/12/07 13:04:34;;;;;;;;;;;6.30;99.90;;;;;;5039851;28;19909;-84
2021/12/07 13:09:55;;;;;;;;;;;6.30;99.90;;;;;;5035393;28;19954;-86
2021/12/07 13:12:26;;;;;;;;;;;6.30;99.90;;;;;;5017721;28;19909;-86
2021/12/07 13:14:57;;;;;;;;;;;6.30;99.90;;;;;;5018236;28;20374;-84
2021/12/07 13:17:24;;;;;;;;;;;6.30;99.90;;;;;;5034831;28;20358;-86
2021/12/07 13:19:59;;;;;;;;;;;6.30;99.90;;;;;;5033602;28;20316;-84
2021/12/07 13:22:24;;;;;;;;;;;6.30;99.90;;;;;;5034239;28;19909;-85
2021/12/07 13:24:56;;;;;;;;;;;6.30;99.90;;;;;;5034005;28;19936;-85
2021/12/07 13:27:22;;;;;;;;;;;6.30;99.90;;;;;;5033879;28;20285;-83
2021/12/07 13:29:51;;;;;;;;;;;6.30;99.90;;;;;;5033381;28;19909;-86
2021/12/07 13:32:18;;;;;;;;;;;6.40;99.90;;;;;;5033898;28;19962;-86
2021/12/07 13:34:43;;;;;;;;;;;6.40;99.90;;;;;;5034312;28;19920;-86
2021/12/07 13:37:10;;;;;;;;;;;6.40;99.90;;;;;;5034504;28;19909;-86
2021/12/07 13:39:47;;;;;;;;;;;6.30;99.90;;;;;;5032940;28;19909;-86
2021/12/07 13:42:16;;;;;;;;;;;6.30;99.90;;;;;;5033926;28;19927;-86
2021/12/07 13:44:43;;;;;;;;;;;6.30;99.90;;;;;;5034720;28;19956;-86
2021/12/07 13:47:11;;;;;;;;;;;6.30;99.90;;;;;;5018410;28;19909;-86
2021/12/07 13:49:39;;;;;;;;;;;6.30;99.90;;;;;;5034690;28;19909;-85
2021/12/07 13:52:09;;;;;;;;;;;6.30;99.90;;;;;;5034302;28;19909;-85
2021/12/07 13:54:39;;;;;;;;;;;6.30;99.90;;;;;;5034300;28;20266;-84
2021/12/07 13:57:04;;;;;;;;;;;6.30;99.90;;;;;;5017605;28;19916;-86
2021/12/07 13:59:30;;;;;;;;;;;6.20;99.90;;;;;;5017028;28;19909;-86
2021/12/07 14:01:57;;;;;;;;;;;6.20;99.90;;;;;;5017640;28;19909;-85
2021/12/07 14:04:24;;;;;;;;;;;6.20;99.90;;;;;;5018399;28;20387;-85
2021/12/07 14:06:50;;;;;;;;;;;6.20;99.90;;;;;;5034587;28;19916;-86
2021/12/07 14:09:16;;;;;;;;;;;6.20;99.90;;;;;;5034019;28;20246;-84
2021/12/07 14:11:42;;;;;;;;;;;6.20;99.90;;;;;;5034617;28;19912;-84
2021/12/07 14:14:08;;;;;;;;;;;6.10;99.90;;;;;;5035742;28;19909;-86
2021/12/07 14:16:34;;;;;;;;;;;6.20;99.90;;;;;;5018376;28;19995;-85
2021/12/07 14:19:00;;;;;;;;;;;6.10;99.90;;;;;;5016908;28;19960;-86
2021/12/07 14:21:27;;;;;;;;;;;6.10;99.90;;;;;;5016337;28;19915;-85
2021/12/07 14:24:02;;;;;;;;;;;6.10;99.90;;;;;;5034398;28;19909;-86
2021/12/07 14:26:28;;;;;;;;;;;6.10;99.90;;;;;;5018683;28;19998;-85
2021/12/07 14:28:54;;;;;;;;;;;6.10;99.90;;;;;;5034292;28;19913;-85
2021/12/07 14:31:39;;;;;;;;;;;6.00;99.90;;;;;;5017300;28;19909;-87
2021/12/07 14:34:13;;;;;;;;;;;6.00;99.90;;;;;;5038152;28;19913;-86
2021/12/07 14:36:38;;;;;;;;;;;6.00;99.90;;;;;;5040563;28;19924;-86
2021/12/07 14:39:09;;;;;;;;;;;6.00;99.90;;;;;;5038794;28;19909;-86
2021/12/07 14:41:42;;;;;;;;;;;6.00;99.90;;;;;;5038421;28;19909;-85
2021/12/07 14:44:09;;;;;;;;;;;5.90;99.90;;;;;;5039138;28;19909;-86
2021/12/07 14:46:34;;;;;;;;;;;5.90;99.90;;;;;;5039168;28;19959;-87
2021/12/07 14:49:00;;;;;;;;;;;5.90;99.90;;;;;;5039190;28;19916;-85
2021/12/07 14:51:27;;;;;;;;;;;5.80;99.90;;;;;;5039559;28;20120;-86
2021/12/07 14:53:57;;;;;;;;;;;5.80;99.90;;;;;;5023664;28;19952;-86
2021/12/07 14:56:24;;;;;;;;;;;5.80;99.90;;;;;;5023834;28;19909;-86
2021/12/07 14:58:51;;;;;;;;;;;5.80;99.90;;;;;;5041219;28;19927;-86
2021/12/07 15:01:24;;;;;;;;;;;5.70;99.90;;;;;;5041172;28;19913;-87
2021/12/07 15:03:52;;;;;;;;;;;5.70;99.90;;;;;;5042859;28;19913;-85
2021/12/07 15:06:19;;;;;;;;;;;5.70;99.90;;;;;;5042539;28;20316;-86
2021/12/07 15:08:45;;;;;;;;;;;5.70;99.90;;;;;;5024308;28;19996;-87
2021/12/07 15:11:11;;;;;;;;;;;5.60;99.90;;;;;;5040483;28;20328;-86
2021/12/07 15:13:37;;;;;;;;;;;5.60;99.90;;;;;;5040547;28;20265;-86
2021/12/07 15:16:04;;;;;;;;;;;5.60;99.90;;;;;;5042315;28;19920;-85
2021/12/07 15:18:32;;;;;;;;;;;5.60;99.90;;;;;;5026804;28;19909;-86
2021/12/07 15:21:00;;;;;;;;;;;5.60;99.90;;;;;;5025604;28;19914;-85
2021/12/07 15:23:26;;;;;;;;;;;5.50;99.90;;;;;;5038664;28;20306;-84
2021/12/07 15:25:52;;;;;;;;;;;5.50;99.90;;;;;;5021746;28;19909;-84
2021/12/07 15:28:19;;;;;;;;;;;5.50;99.90;;;;;;5037361;28;19915;-84
2021/12/07 15:30:45;;;;;;;;;;;5.50;99.90;;;;;;5037349;28;19909;-84
2021/12/07 15:33:11;;;;;;;;;;;5.50;99.90;;;;;;5037946;28;19963;-84
2021/12/07 15:35:37;;;;;;;;;;;5.50;99.90;;;;;;5038117;28;19909;-84
2021/12/07 15:38:03;;;;;;;;;;;5.50;99.90;;;;;;5035825;28;20320;-83
2021/12/07 15:40:28;;;;;;;;;;;5.40;99.90;;;;;;5018137;28;20282;-85
2021/12/07 15:42:54;;;;;;;;;;;5.40;99.90;;;;;;5035635;28;19909;-84
2021/12/07 15:45:20;;;;;;;;;;;5.40;99.90;;;;;;5034730;28;19912;-84
2021/12/07 15:47:46;;;;;;;;;;;5.40;99.90;;;;;;5034370;28;19913;-84
2021/12/07 15:50:14;;;;;;;;;;;5.40;99.90;;;;;;5037029;28;19909;-85
2021/12/07 15:52:47;;;;;;;;;;;5.30;99.90;;;;;;5039135;28;19938;-83
2021/12/07 15:55:14;;;;;;;;;;;5.30;99.90;;;;;;5038957;28;19924;-83
2021/12/07 15:57:40;;;;;;;;;;;5.30;99.90;;;;;;5039436;28;19909;-85
2021/12/07 16:00:06;;;;;;;;;;;5.20;99.90;;;;;;5039071;28;19909;-84
2021/12/07 16:02:37;;;;;;;;;;;5.30;99.90;;;;;;5039372;28;19905;-84
2021/12/07 16:05:10;;;;;;;;;;;5.30;99.90;;;;;;5023420;28;19909;-85
2021/12/07 16:07:46;;;;;;;;;;;5.30;99.90;;;;;;5038655;28;19913;-83
2021/12/07 16:10:13;;;;;;;;;;;5.30;99.90;;;;;;5039317;28;19909;-84
2021/12/07 16:12:39;;;;;;;;;;;5.30;99.90;;;;;;5039229;28;19905;-85
2021/12/07 16:15:15;;;;;;;;;;;5.30;99.90;;;;;;5039864;28;19992;-85
2021/12/07 16:17:42;;;;;;;;;;;5.20;99.90;;;;;;5038618;28;19916;-85
2021/12/07 16:20:08;;;;;;;;;;;5.20;99.90;;;;;;5039223;28;20271;-85